Time;durP1;ratioP1;P1;durP2;ratioP2;P2;SDS_P1;SDS_P2;PMS_P1;PMS_P2;Temp;Humidity;BMP_temperature;BMP_pressure;BME280_temperature;BME280_humidity;BME280_pressure;Samples;Min_cycle;Max_cycle;Signal;HPM_P1;HPM_P2
2023/05/03 05:10:48;;;;;;;6.27;4.70;;;;;;;;;;4698746;30;20440;-82
2023/05/03 05:13:14;;;;;;;6.68;4.40;;;;;;;;;;4748129;29;20436;-82
2023/05/03 05:15:41;;;;;;;6.68;5.40;;;;;;;;;;4870956;29;20493;-82
2023/05/03 05:18:08;;;;;;;12.60;5.50;;;;;;;;;;4898221;29;20426;-82
2023/05/03 05:20:34;;;;;;;8.63;5.72;;;;;;;;;;4936350;29;20432;-81
2023/05/03 05:23:00;;;;;;;7.20;5.03;;;;;;;;;;4971945;28;20900;-82
2023/05/03 05:25:27;;;;;;;6.57;5.30;;;;;;;;;;4995672;28;20505;-82
2023/05/03 05:27:54;;;;;;;10.77;5.40;;;;;;;;;;4994043;28;20446;-82
2023/05/03 05:30:22;;;;;;;7.32;6.10;;;;;;;;;;4991968;28;20424;-82
2023/05/03 05:32:48;;;;;;;8.53;5.60;;;;;;;;;;4982583;28;20511;-82
2023/05/03 05:35:16;;;;;;;7.45;5.80;;;;;;;;;;4975818;28;20937;-83
2023/05/03 05:37:42;;;;;;;10.98;6.65;;;;;;;;;;4976284;28;20420;-83
2023/05/03 05:40:10;;;;;;;8.30;5.80;;;;;;;;;;4975793;28;20412;-83
2023/05/03 05:42:36;;;;;;;12.05;5.95;;;;;;;;;;4993731;28;20489;-83
2023/05/03 05:45:06;;;;;;;8.98;5.70;;;;;;;;;;4995207;28;20426;-82
2023/05/03 05:47:32;;;;;;;9.70;5.80;;;;;;;;;;4995577;28;20418;-82
2023/05/03 05:50:02;;;;;;;9.63;5.93;;;;;;;;;;4995429;28;20418;-83
2023/05/03 05:52:28;;;;;;;9.57;6.50;;;;;;;;;;4995627;28;20418;-82
2023/05/03 05:54:56;;;;;;;11.38;6.78;;;;;;;;;;4995234;28;20508;-82
2023/05/03 05:57:23;;;;;;;9.37;6.03;;;;;;;;;;4995209;28;20943;-82
2023/05/03 05:59:49;;;;;;;14.43;7.38;;;;;;;;;;4994939;28;20423;-82
2023/05/03 06:02:21;;;;;;;8.48;6.15;;;;;;;;;;4976132;28;20440;-82
2023/05/03 06:04:48;;;;;;;7.10;5.80;;;;;;;;;;4984506;28;20521;-82
2023/05/03 06:07:15;;;;;;;8.77;6.15;;;;;;;;;;4996711;28;20424;-82
2023/05/03 06:09:41;;;;;;;9.15;5.90;;;;;;;;;;5014977;28;20503;-82
2023/05/03 06:12:09;;;;;;;10.20;6.47;;;;;;;;;;5012864;28;20412;-82
2023/05/03 06:14:35;;;;;;;10.10;6.37;;;;;;;;;;5013574;28;20425;-82
2023/05/03 06:17:02;;;;;;;9.20;5.53;;;;;;;;;;5001415;28;20449;-83
2023/05/03 06:19:30;;;;;;;10.02;5.97;;;;;;;;;;4995126;28;20422;-83
2023/05/03 06:21:56;;;;;;;8.73;5.97;;;;;;;;;;4994888;28;20414;-82
2023/05/03 06:24:22;;;;;;;7.40;5.30;;;;;;;;;;4994964;28;20430;-82
2023/05/03 06:26:49;;;;;;;8.13;5.40;;;;;;;;;;4997270;28;20499;-82
2023/05/03 06:29:15;;;;;;;7.30;5.47;;;;;;;;;;5014557;28;20428;-82
2023/05/03 06:31:42;;;;;;;7.10;5.60;;;;;;;;;;4998316;28;20426;-83
2023/05/03 06:34:08;;;;;;;7.65;5.00;;;;;;;;;;5008736;28;20900;-82
2023/05/03 06:36:36;;;;;;;13.88;5.80;;;;;;;;;;4995224;28;20916;-83
2023/05/03 06:39:03;;;;;;;8.27;5.35;;;;;;;;;;4999108;28;20437;-83
2023/05/03 06:41:29;;;;;;;8.00;4.97;;;;;;;;;;4994296;28;20793;-82
2023/05/03 06:43:56;;;;;;;9.60;5.78;;;;;;;;;;4994501;28;20426;-83
2023/05/03 06:46:22;;;;;;;8.30;5.03;;;;;;;;;;5002284;28;20432;-82
2023/05/03 06:48:49;;;;;;;10.10;4.90;;;;;;;;;;5014116;28;20409;-83
2023/05/03 06:51:15;;;;;;;9.02;4.60;;;;;;;;;;4998771;28;20427;-83
2023/05/03 06:53:45;;;;;;;6.30;5.10;;;;;;;;;;4994547;28;20441;-83
2023/05/03 06:56:11;;;;;;;6.07;5.00;;;;;;;;;;4998578;28;20442;-83
2023/05/03 06:58:37;;;;;;;7.93;4.60;;;;;;;;;;4993787;28;20425;-83
2023/05/03 07:01:04;;;;;;;7.68;5.15;;;;;;;;;;4998566;28;20412;-83
2023/05/03 07:03:30;;;;;;;8.63;5.20;;;;;;;;;;4997305;28;20410;-83
2023/05/03 07:05:57;;;;;;;11.32;4.90;;;;;;;;;;4993684;28;20419;-83
2023/05/03 07:08:23;;;;;;;5.10;4.60;;;;;;;;;;4994012;28;20421;-83
2023/05/03 07:10:51;;;;;;;7.93;3.90;;;;;;;;;;4993593;28;20754;-82
2023/05/03 07:13:17;;;;;;;7.40;3.50;;;;;;;;;;4994046;28;20418;-83
2023/05/03 07:15:44;;;;;;;6.35;4.35;;;;;;;;;;4993503;28;20430;-82
2023/05/03 07:18:11;;;;;;;4.95;2.80;;;;;;;;;;4992937;28;20434;-83
2023/05/03 07:20:37;;;;;;;6.82;2.70;;;;;;;;;;4993335;28;20426;-83
2023/05/03 07:23:05;;;;;;;4.70;2.60;;;;;;;;;;4992838;28;20421;-83
2023/05/03 07:25:31;;;;;;;6.05;2.78;;;;;;;;;;4991838;28;20454;-83
2023/05/03 07:27:59;;;;;;;4.63;2.70;;;;;;;;;;4980985;28;20440;-82
2023/05/03 07:30:26;;;;;;;3.65;2.00;;;;;;;;;;4973946;28;20427;-83
2023/05/03 07:32:52;;;;;;;3.58;1.90;;;;;;;;;;4985762;28;20410;-83
2023/05/03 07:35:19;;;;;;;5.22;1.80;;;;;;;;;;4993278;28;20415;-83
2023/05/03 07:37:45;;;;;;;5.40;2.00;;;;;;;;;;4993520;28;20414;-82
2023/05/03 07:40:12;;;;;;;2.17;1.70;;;;;;;;;;4992895;28;20426;-82
2023/05/03 07:42:38;;;;;;;3.72;1.85;;;;;;;;;;4993179;28;20429;-83
2023/05/03 07:45:07;;;;;;;3.35;1.70;;;;;;;;;;4993096;28;20414;-83
2023/05/03 07:47:36;;;;;;;4.00;1.80;;;;;;;;;;4993255;28;20888;-83
2023/05/03 07:50:04;;;;;;;3.42;1.40;;;;;;;;;;4991598;28;20426;-83
2023/05/03 07:52:30;;;;;;;4.82;2.00;;;;;;;;;;4993293;28;20414;-83
2023/05/03 07:54:57;;;;;;;4.30;1.80;;;;;;;;;;4993062;28;20417;-83
2023/05/03 07:57:24;;;;;;;5.05;1.95;;;;;;;;;;4993178;28;20422;-82
2023/05/03 07:59:50;;;;;;;2.53;1.60;;;;;;;;;;4990097;28;20784;-83
2023/05/03 08:02:17;;;;;;;3.20;2.30;;;;;;;;;;4973813;28;20508;-83
2023/05/03 08:04:44;;;;;;;8.40;2.83;;;;;;;;;;4980236;28;20425;-82
2023/05/03 08:07:10;;;;;;;3.58;2.15;;;;;;;;;;5002158;28;20432;-83
2023/05/03 08:09:37;;;;;;;4.20;2.33;;;;;;;;;;5051994;23;20968;-82
2023/05/03 08:12:03;;;;;;;5.13;2.15;;;;;;;;;;5027869;28;20419;-81
2023/05/03 08:14:32;;;;;;;3.90;2.20;;;;;;;;;;5032598;28;20415;-82
2023/05/03 08:16:59;;;;;;;4.07;1.90;;;;;;;;;;5019845;28;20408;-82
2023/05/03 08:19:27;;;;;;;4.32;2.10;;;;;;;;;;5029058;28;20450;-80
2023/05/03 08:21:54;;;;;;;4.80;2.38;;;;;;;;;;5027061;28;20424;-80
2023/05/03 08:24:21;;;;;;;6.97;2.47;;;;;;;;;;5028864;28;20422;-80
2023/05/03 08:26:47;;;;;;;6.15;3.22;;;;;;;;;;5032178;28;20920;-79
2023/05/03 08:29:14;;;;;;;3.50;2.40;;;;;;;;;;5032262;28;20419;-80
2023/05/03 08:31:40;;;;;;;4.55;2.70;;;;;;;;;;5032124;28;20426;-81
2023/05/03 08:34:09;;;;;;;4.15;2.30;;;;;;;;;;5031333;28;20478;-81
2023/05/03 08:36:38;;;;;;;2.75;2.00;;;;;;;;;;5023725;28;20483;-81
2023/05/03 08:39:05;;;;;;;5.83;2.47;;;;;;;;;;5031973;28;20423;-80
2023/05/03 08:41:33;;;;;;;6.25;2.60;;;;;;;;;;5031799;28;20439;-81
2023/05/03 08:44:00;;;;;;;7.50;2.58;;;;;;;;;;5031214;28;20459;-82
2023/05/03 08:46:27;;;;;;;4.32;2.40;;;;;;;;;;5031807;28;20423;-79
2023/05/03 08:48:55;;;;;;;4.53;2.40;;;;;;;;;;5033035;28;20457;-80
2023/05/03 08:51:22;;;;;;;5.05;2.40;;;;;;;;;;5031431;28;20415;-81
2023/05/03 08:53:50;;;;;;;5.25;2.88;;;;;;;;;;5034680;28;20422;-80
2023/05/03 08:56:23;;;;;;;5.60;3.00;;;;;;;;;;5031820;28;20411;-81
2023/05/03 08:58:49;;;;;;;6.03;2.63;;;;;;;;;;5033053;28;20418;-79
2023/05/03 09:01:16;;;;;;;5.32;2.90;;;;;;;;;;5032271;28;20423;-81
2023/05/03 09:03:48;;;;;;;4.85;2.70;;;;;;;;;;5035238;28;20410;-81
2023/05/03 09:06:19;;;;;;;5.45;2.80;;;;;;;;;;5032053;28;20813;-80
2023/05/03 09:08:45;;;;;;;4.43;2.47;;;;;;;;;;5024506;28;20880;-81
2023/05/03 09:11:21;;;;;;;4.03;2.28;;;;;;;;;;5022017;28;20434;-80
2023/05/03 09:13:48;;;;;;;6.00;2.10;;;;;;;;;;5026343;28;20424;-81
2023/05/03 09:16:22;;;;;;;5.93;2.50;;;;;;;;;;5023332;28;20403;-81
2023/05/03 09:18:56;;;;;;;3.88;2.60;;;;;;;;;;5032207;28;20513;-81
2023/05/03 09:21:22;;;;;;;4.80;2.40;;;;;;;;;;5031869;28;20427;-80
2023/05/03 09:23:49;;;;;;;5.43;2.67;;;;;;;;;;5029473;28;20430;-82
2023/05/03 09:26:28;;;;;;;3.38;2.42;;;;;;;;;;5032358;28;20787;-81
2023/05/03 09:28:55;;;;;;;7.10;3.70;;;;;;;;;;5031772;28;20438;-81
2023/05/03 09:31:22;;;;;;;4.80;2.70;;;;;;;;;;5032924;28;20417;-82
2023/05/03 09:33:48;;;;;;;2.90;2.00;;;;;;;;;;5033233;28;20475;-80
2023/05/03 09:36:16;;;;;;;4.60;2.50;;;;;;;;;;5032079;28;20421;-80
2023/05/03 09:38:42;;;;;;;6.65;2.50;;;;;;;;;;5032634;28;20473;-81
2023/05/03 09:41:09;;;;;;;4.80;2.65;;;;;;;;;;5032757;28;20430;-81
2023/05/03 09:43:48;;;;;;;3.25;2.30;;;;;;;;;;5035152;28;20904;-80
2023/05/03 09:46:16;;;;;;;3.90;2.40;;;;;;;;;;5036228;28;20422;-81
2023/05/03 09:48:43;;;;;;;5.80;2.80;;;;;;;;;;5038175;28;20427;-82
2023/05/03 09:51:10;;;;;;;4.22;2.53;;;;;;;;;;5033777;28;20796;-80
2023/05/03 09:53:37;;;;;;;6.25;2.35;;;;;;;;;;5037625;28;20792;-82
2023/05/03 09:56:04;;;;;;;4.38;2.30;;;;;;;;;;5037038;28;20465;-81
2023/05/03 09:58:33;;;;;;;4.90;2.28;;;;;;;;;;5033778;28;20427;-81
2023/05/03 10:01:01;;;;;;;3.95;2.00;;;;;;;;;;5031084;28;20502;-82
2023/05/03 10:03:32;;;;;;;3.88;2.20;;;;;;;;;;5029946;28;20424;-81
2023/05/03 10:06:02;;;;;;;5.30;2.40;;;;;;;;;;5032994;28;20423;-82
2023/05/03 10:08:34;;;;;;;4.97;2.47;;;;;;;;;;5038117;28;20440;-82
2023/05/03 10:11:01;;;;;;;3.80;2.35;;;;;;;;;;5036159;28;20426;-81
2023/05/03 10:13:28;;;;;;;4.95;2.30;;;;;;;;;;5038215;28;20776;-83
2023/05/03 10:15:59;;;;;;;5.30;2.10;;;;;;;;;;5039679;28;20402;-82
2023/05/03 10:18:29;;;;;;;4.63;2.50;;;;;;;;;;5033592;28;20794;-83
2023/05/03 10:20:58;;;;;;;3.40;2.20;;;;;;;;;;5036694;28;20491;-81
2023/05/03 10:23:25;;;;;;;4.32;2.17;;;;;;;;;;5026536;28;20423;-82
2023/05/03 10:26:12;;;;;;;3.30;2.30;;;;;;;;;;5036302;28;20423;-82
2023/05/03 10:28:39;;;;;;;6.20;2.92;;;;;;;;;;5029437;28;20789;-81
2023/05/03 10:31:05;;;;;;;5.68;2.30;;;;;;;;;;5035497;28;20681;-82
2023/05/03 10:33:33;;;;;;;4.47;2.35;;;;;;;;;;5039460;28;20450;-81
2023/05/03 10:36:04;;;;;;;4.27;2.60;;;;;;;;;;5036948;28;20415;-81
2023/05/03 10:38:31;;;;;;;5.10;2.80;;;;;;;;;;5036907;28;20442;-81
2023/05/03 10:40:59;;;;;;;6.60;2.50;;;;;;;;;;5033420;28;20421;-80
2023/05/03 10:43:41;;;;;;;4.22;2.40;;;;;;;;;;5036610;28;20450;-81
2023/05/03 10:46:10;;;;;;;4.50;2.30;;;;;;;;;;5038042;28;20426;-81
2023/05/03 10:48:38;;;;;;;2.77;2.53;;;;;;;;;;5038448;28;20415;-82
2023/05/03 10:51:20;;;;;;;8.40;3.00;;;;;;;;;;5038207;28;20519;-80
2023/05/03 10:53:46;;;;;;;2.50;2.30;;;;;;;;;;5037600;28;20414;-81
2023/05/03 10:56:14;;;;;;;3.58;2.10;;;;;;;;;;5034298;28;20473;-81
2023/05/03 10:58:42;;;;;;;3.75;2.67;;;;;;;;;;5034077;28;20415;-82
2023/05/03 11:01:09;;;;;;;3.75;2.30;;;;;;;;;;5034183;28;20419;-81
2023/05/03 11:03:46;;;;;;;3.80;2.50;;;;;;;;;;5034482;28;20932;-82
2023/05/03 11:06:26;;;;;;;7.05;3.10;;;;;;;;;;5030394;28;20469;-82
2023/05/03 11:08:53;;;;;;;6.67;2.57;;;;;;;;;;5028335;28;20789;-81
2023/05/03 11:11:20;;;;;;;2.30;2.10;;;;;;;;;;5029723;28;20427;-82
2023/05/03 11:13:46;;;;;;;5.45;2.45;;;;;;;;;;5031775;28;20780;-80
2023/05/03 11:16:13;;;;;;;4.40;2.30;;;;;;;;;;5032840;28;20415;-81
2023/05/03 11:18:40;;;;;;;3.40;2.40;;;;;;;;;;5034027;28;20419;-81
2023/05/03 11:21:07;;;;;;;3.50;2.20;;;;;;;;;;5033511;28;20956;-80
2023/05/03 11:23:34;;;;;;;5.40;2.70;;;;;;;;;;5034869;28;20415;-81
2023/05/03 11:26:00;;;;;;;4.22;2.40;;;;;;;;;;5033304;28;20916;-80
2023/05/03 11:28:27;;;;;;;5.45;2.80;;;;;;;;;;5044915;28;20491;-81
2023/05/03 11:30:53;;;;;;;4.82;2.50;;;;;;;;;;5032813;28;20860;-81
2023/05/03 11:33:20;;;;;;;2.97;2.33;;;;;;;;;;5033049;28;20415;-81
2023/05/03 11:35:46;;;;;;;4.78;2.50;;;;;;;;;;5030599;28;20423;-81
2023/05/03 11:38:14;;;;;;;5.68;2.47;;;;;;;;;;5031467;28;20419;-81
2023/05/03 11:40:41;;;;;;;4.32;2.60;;;;;;;;;;5033214;28;20784;-80
2023/05/03 11:43:07;;;;;;;4.93;2.33;;;;;;;;;;5033699;28;20496;-81
2023/05/03 11:45:39;;;;;;;3.45;2.60;;;;;;;;;;5033453;28;20415;-81
2023/05/03 11:48:06;;;;;;;3.35;2.67;;;;;;;;;;5033518;28;20435;-80
2023/05/03 11:50:45;;;;;;;3.42;2.20;;;;;;;;;;5032280;28;20928;-80
2023/05/03 11:53:13;;;;;;;3.80;2.50;;;;;;;;;;5033308;28;20419;-81
2023/05/03 11:55:42;;;;;;;3.35;2.60;;;;;;;;;;5033414;28;20414;-81
2023/05/03 11:58:09;;;;;;;3.95;3.00;;;;;;;;;;5030202;28;20412;-80
2023/05/03 12:00:36;;;;;;;4.88;3.20;;;;;;;;;;5033071;28;20419;-81
2023/05/03 12:03:02;;;;;;;3.60;2.95;;;;;;;;;;5027695;28;20425;-81
2023/05/03 12:05:29;;;;;;;4.70;2.90;;;;;;;;;;5031967;28;20419;-82
2023/05/03 12:07:56;;;;;;;4.15;2.40;;;;;;;;;;5033270;28;20844;-80
2023/05/03 12:10:23;;;;;;;4.00;2.80;;;;;;;;;;5033032;28;20415;-80
2023/05/03 12:12:55;;;;;;;4.85;2.67;;;;;;;;;;5033913;28;20418;-81
2023/05/03 12:15:31;;;;;;;4.80;2.75;;;;;;;;;;5032133;28;20411;-81
2023/05/03 12:18:00;;;;;;;6.47;2.60;;;;;;;;;;5021829;28;21047;-82
2023/05/03 12:20:29;;;;;;;4.35;3.00;;;;;;;;;;5033004;28;20412;-83
2023/05/03 12:22:56;;;;;;;6.60;3.15;;;;;;;;;;5021820;28;20415;-82
2023/05/03 12:25:23;;;;;;;5.03;3.60;;;;;;;;;;5032370;28;20422;-82
2023/05/03 12:27:49;;;;;;;6.28;3.10;;;;;;;;;;5034444;28;20449;-82
2023/05/03 12:30:17;;;;;;;8.32;3.22;;;;;;;;;;5032701;28;20407;-82
2023/05/03 12:32:44;;;;;;;4.63;2.85;;;;;;;;;;5030301;28;20422;-82
2023/05/03 12:35:11;;;;;;;5.68;2.90;;;;;;;;;;5031778;28;20422;-81
2023/05/03 12:37:38;;;;;;;6.03;3.20;;;;;;;;;;5033446;28;20427;-81
2023/05/03 12:40:05;;;;;;;7.78;3.55;;;;;;;;;;5026856;28;20414;-82
2023/05/03 12:42:31;;;;;;;4.10;3.20;;;;;;;;;;5030924;28;20414;-83
2023/05/03 12:44:58;;;;;;;5.63;3.15;;;;;;;;;;5033057;28;20415;-82
2023/05/03 12:47:26;;;;;;;5.50;3.30;;;;;;;;;;5026986;28;20937;-82
2023/05/03 12:49:52;;;;;;;4.53;3.10;;;;;;;;;;5026056;28;20445;-82
2023/05/03 12:52:19;;;;;;;5.72;3.80;;;;;;;;;;5025594;28;20419;-83
2023/05/03 12:54:46;;;;;;;3.83;2.80;;;;;;;;;;5033486;28;20415;-81
2023/05/03 12:57:13;;;;;;;5.10;2.83;;;;;;;;;;5027322;28;20918;-81
2023/05/03 12:59:39;;;;;;;4.87;3.00;;;;;;;;;;5033772;28;20429;-80
2023/05/03 13:02:06;;;;;;;5.03;3.00;;;;;;;;;;5034912;28;20511;-80
2023/05/03 13:04:34;;;;;;;4.53;3.10;;;;;;;;;;5033772;28;20912;-82
2023/05/03 13:07:00;;;;;;;4.80;3.25;;;;;;;;;;5029296;28;20426;-83
2023/05/03 13:09:27;;;;;;;5.22;3.30;;;;;;;;;;5029905;28;20488;-83
2023/05/03 13:11:54;;;;;;;5.10;3.40;;;;;;;;;;5038437;28;20425;-83
2023/05/03 13:14:21;;;;;;;4.97;3.10;;;;;;;;;;5031863;28;20419;-82
2023/05/03 13:16:47;;;;;;;4.22;3.30;;;;;;;;;;5031725;28;20431;-83
2023/05/03 13:19:14;;;;;;;4.20;3.70;;;;;;;;;;5037246;28;21023;-80
2023/05/03 13:21:42;;;;;;;4.60;3.70;;;;;;;;;;5036005;28;20435;-81
2023/05/03 13:24:08;;;;;;;4.60;3.60;;;;;;;;;;5031841;28;20436;-81
2023/05/03 13:26:36;;;;;;;3.92;3.55;;;;;;;;;;5035823;28;20427;-82
2023/05/03 13:29:03;;;;;;;5.05;3.90;;;;;;;;;;5036005;28;20417;-82
2023/05/03 13:31:30;;;;;;;4.10;3.50;;;;;;;;;;5033162;28;20450;-83
2023/05/03 13:33:57;;;;;;;5.22;4.00;;;;;;;;;;5031066;28;20788;-83
2023/05/03 13:36:28;;;;;;;5.03;3.50;;;;;;;;;;5033245;28;20425;-83
2023/05/03 13:38:56;;;;;;;5.57;3.70;;;;;;;;;;5035484;28;20403;-82
2023/05/03 13:41:24;;;;;;;5.33;3.83;;;;;;;;;;5030489;28;20437;-82
2023/05/03 13:43:51;;;;;;;5.10;3.80;;;;;;;;;;5036880;28;20414;-82
2023/05/03 13:46:18;;;;;;;4.75;3.40;;;;;;;;;;5036444;28;20939;-82
2023/05/03 13:48:44;;;;;;;4.97;3.90;;;;;;;;;;5039716;28;20421;-81
2023/05/03 13:51:12;;;;;;;4.53;3.55;;;;;;;;;;5034082;28;20421;-80
2023/05/03 13:53:39;;;;;;;4.20;3.50;;;;;;;;;;5028966;28;20430;-82
2023/05/03 13:56:07;;;;;;;3.92;3.20;;;;;;;;;;5037195;28;20425;-82
2023/05/03 13:58:34;;;;;;;3.78;3.20;;;;;;;;;;5037550;28;20426;-81
2023/05/03 14:01:01;;;;;;;4.47;3.33;;;;;;;;;;5037729;28;20415;-85
2023/05/03 14:03:27;;;;;;;5.78;3.58;;;;;;;;;;5036685;28;20407;-82
2023/05/03 14:05:53;;;;;;;4.00;3.60;;;;;;;;;;5037458;28;20939;-81
2023/05/03 14:08:20;;;;;;;4.03;3.63;;;;;;;;;;5037451;28;20434;-80
2023/05/03 14:10:46;;;;;;;4.78;3.60;;;;;;;;;;5059406;22;20411;-82
2023/05/03 14:13:14;;;;;;;6.50;4.07;;;;;;;;;;5034446;28;20427;-82
2023/05/03 14:15:41;;;;;;;6.55;3.90;;;;;;;;;;5034020;28;20415;-82
2023/05/03 14:18:07;;;;;;;5.25;3.90;;;;;;;;;;5028548;28;20782;-82
2023/05/03 14:20:34;;;;;;;6.47;4.00;;;;;;;;;;5024103;28;20407;-82
2023/05/03 14:23:01;;;;;;;5.82;4.30;;;;;;;;;;5017677;28;20478;-82
2023/05/03 14:25:27;;;;;;;5.80;4.47;;;;;;;;;;5020738;28;20922;-82
2023/05/03 14:27:54;;;;;;;5.03;4.00;;;;;;;;;;5021025;28;20485;-83
2023/05/03 14:30:22;;;;;;;5.60;4.38;;;;;;;;;;5013882;28;20421;-82
2023/05/03 14:32:48;;;;;;;5.80;4.38;;;;;;;;;;5019153;28;20785;-82
2023/05/03 14:35:17;;;;;;;5.80;4.20;;;;;;;;;;5025784;28;20444;-82
2023/05/03 14:37:43;;;;;;;4.80;4.00;;;;;;;;;;5011842;28;20425;-82
2023/05/03 14:40:10;;;;;;;4.80;4.30;;;;;;;;;;4992883;28;20415;-82
2023/05/03 14:42:36;;;;;;;5.93;4.18;;;;;;;;;;4999956;28;20420;-83
2023/05/03 14:45:04;;;;;;;4.75;4.10;;;;;;;;;;5012407;28;20783;-82
2023/05/03 14:47:31;;;;;;;6.97;4.20;;;;;;;;;;5015736;28;20806;-82
2023/05/03 14:49:58;;;;;;;6.30;4.38;;;;;;;;;;5026944;28;20418;-82
2023/05/03 14:52:24;;;;;;;5.00;4.05;;;;;;;;;;5017653;28;20855;-82
2023/05/03 14:54:51;;;;;;;7.03;4.60;;;;;;;;;;5003924;28;20471;-83
2023/05/03 14:57:17;;;;;;;5.30;4.15;;;;;;;;;;5008896;28;20427;-83
2023/05/03 14:59:46;;;;;;;5.88;4.25;;;;;;;;;;5013135;28;20428;-82
2023/05/03 15:02:12;;;;;;;5.95;4.90;;;;;;;;;;5029114;28;20497;-82
2023/05/03 15:04:40;;;;;;;7.63;5.40;;;;;;;;;;5017178;28;20487;-82
2023/05/03 15:07:07;;;;;;;6.85;5.35;;;;;;;;;;5003500;28;20435;-82
2023/05/03 15:09:34;;;;;;;5.85;4.90;;;;;;;;;;5013491;28;20444;-82
2023/05/03 15:12:02;;;;;;;6.70;4.70;;;;;;;;;;5017811;28;20419;-82
2023/05/03 15:14:29;;;;;;;8.45;4.72;;;;;;;;;;5013497;28;20833;-82
2023/05/03 15:16:55;;;;;;;5.15;4.50;;;;;;;;;;5010960;28;20528;-83
2023/05/03 15:19:21;;;;;;;8.48;4.78;;;;;;;;;;5000792;28;20408;-83
2023/05/03 15:21:50;;;;;;;6.03;4.43;;;;;;;;;;5018197;28;20423;-83
2023/05/03 15:24:16;;;;;;;6.47;4.40;;;;;;;;;;5019735;28;20895;-82
2023/05/03 15:26:43;;;;;;;5.15;4.10;;;;;;;;;;5020505;28;20449;-83
2023/05/03 15:29:10;;;;;;;5.05;4.38;;;;;;;;;;5011243;28;20471;-83
2023/05/03 15:31:36;;;;;;;8.32;4.70;;;;;;;;;;4991428;28;20413;-83
2023/05/03 15:34:03;;;;;;;7.40;4.35;;;;;;;;;;5025474;28;20415;-82
2023/05/03 15:36:30;;;;;;;5.57;5.00;;;;;;;;;;5023915;28;20425;-82
2023/05/03 15:38:58;;;;;;;6.50;4.65;;;;;;;;;;5012015;28;20419;-82
2023/05/03 15:41:25;;;;;;;5.60;4.80;;;;;;;;;;5007577;28;20421;-82
2023/05/03 15:43:51;;;;;;;5.88;4.95;;;;;;;;;;5028972;28;20421;-82
2023/05/03 15:46:17;;;;;;;4.78;4.28;;;;;;;;;;4999308;28;20419;-82
2023/05/03 15:48:44;;;;;;;6.53;5.27;;;;;;;;;;5018700;28;20427;-83
2023/05/03 15:51:10;;;;;;;5.30;4.88;;;;;;;;;;5025374;28;20495;-82
2023/05/03 15:53:36;;;;;;;7.35;5.50;;;;;;;;;;5016628;28;20426;-82
2023/05/03 15:56:04;;;;;;;6.00;5.40;;;;;;;;;;5016488;28;20945;-82
2023/05/03 15:58:32;;;;;;;6.22;4.80;;;;;;;;;;5016151;28;20428;-82
2023/05/03 16:00:59;;;;;;;6.20;5.28;;;;;;;;;;5016847;28;20415;-83
2023/05/03 16:03:26;;;;;;;7.65;4.70;;;;;;;;;;5029941;28;20413;-82
2023/05/03 16:05:52;;;;;;;5.47;4.25;;;;;;;;;;5015483;28;20420;-82
2023/05/03 16:08:19;;;;;;;4.70;4.20;;;;;;;;;;5015658;28;20918;-82
2023/05/03 16:10:45;;;;;;;4.90;3.70;;;;;;;;;;5016259;28;20417;-82
2023/05/03 16:13:13;;;;;;;5.13;3.60;;;;;;;;;;5012042;28;20439;-82
2023/05/03 16:15:40;;;;;;;4.38;3.58;;;;;;;;;;5011890;28;20761;-82
2023/05/03 16:18:06;;;;;;;4.13;3.40;;;;;;;;;;5002995;28;20421;-82
2023/05/03 16:20:33;;;;;;;5.80;3.78;;;;;;;;;;4992639;28;20418;-82
2023/05/03 16:22:59;;;;;;;4.68;3.35;;;;;;;;;;5012126;28;20432;-82
2023/05/03 16:25:25;;;;;;;5.10;3.67;;;;;;;;;;5011915;28;20413;-82
2023/05/03 16:27:52;;;;;;;5.10;3.35;;;;;;;;;;5005439;28;20422;-82
2023/05/03 16:30:20;;;;;;;5.40;3.47;;;;;;;;;;4999077;28;20923;-82
2023/05/03 16:32:46;;;;;;;4.28;3.88;;;;;;;;;;5012726;28;20416;-82
2023/05/03 16:35:14;;;;;;;4.32;3.50;;;;;;;;;;5012015;28;20412;-82
2023/05/03 16:37:40;;;;;;;7.57;3.30;;;;;;;;;;5020292;28;20429;-82
2023/05/03 16:40:10;;;;;;;5.50;3.90;;;;;;;;;;5024898;28;20447;-82
2023/05/03 16:42:36;;;;;;;6.38;3.78;;;;;;;;;;5025226;28;20472;-82
2023/05/03 16:45:02;;;;;;;4.07;3.58;;;;;;;;;;5025072;28;20457;-82
2023/05/03 16:47:32;;;;;;;3.95;3.50;;;;;;;;;;5015122;28;20413;-82
2023/05/03 16:49:58;;;;;;;5.13;3.90;;;;;;;;;;5015536;28;20430;-82
2023/05/03 16:52:26;;;;;;;7.30;4.22;;;;;;;;;;5016304;28;20412;-82
2023/05/03 16:54:52;;;;;;;4.78;3.80;;;;;;;;;;5028940;28;20418;-82
2023/05/03 16:57:19;;;;;;;5.28;3.70;;;;;;;;;;5030461;28;20414;-82
2023/05/03 16:59:46;;;;;;;5.40;3.97;;;;;;;;;;5019951;28;20416;-82
2023/05/03 17:02:12;;;;;;;4.85;3.83;;;;;;;;;;5014388;28;20436;-79
2023/05/03 17:04:40;;;;;;;8.32;4.05;;;;;;;;;;5020793;28;20456;-81
2023/05/03 17:07:06;;;;;;;5.75;3.67;;;;;;;;;;5011149;28;20432;-81
2023/05/03 17:09:33;;;;;;;5.55;3.30;;;;;;;;;;5012915;28;20947;-81
2023/05/03 17:12:00;;;;;;;7.32;3.90;;;;;;;;;;5022023;28;20426;-82
2023/05/03 17:14:26;;;;;;;5.60;3.20;;;;;;;;;;5021930;28;20414;-82
2023/05/03 17:16:53;;;;;;;6.47;3.35;;;;;;;;;;5019064;28;20428;-82
2023/05/03 17:19:19;;;;;;;5.25;3.60;;;;;;;;;;5014533;28;20945;-81
2023/05/03 17:21:47;;;;;;;5.15;3.90;;;;;;;;;;5014618;28;20476;-82
2023/05/03 17:24:13;;;;;;;6.80;3.80;;;;;;;;;;5018562;28;20427;-81
2023/05/03 17:26:40;;;;;;;6.90;3.80;;;;;;;;;;5019914;28;20423;-82
2023/05/03 17:29:06;;;;;;;3.75;3.17;;;;;;;;;;5023173;28;20427;-82
2023/05/03 17:31:32;;;;;;;5.37;3.80;;;;;;;;;;5019873;28;20535;-81
2023/05/03 17:33:59;;;;;;;5.18;3.60;;;;;;;;;;5011376;28;20433;-81
2023/05/03 17:36:26;;;;;;;4.10;3.67;;;;;;;;;;5011082;28;20442;-81
2023/05/03 17:38:54;;;;;;;6.88;3.88;;;;;;;;;;5016347;28;20488;-81
2023/05/03 17:41:20;;;;;;;5.20;4.05;;;;;;;;;;5024010;28;20431;-81
2023/05/03 17:43:46;;;;;;;5.38;3.30;;;;;;;;;;5014189;28;20803;-83
2023/05/03 17:46:13;;;;;;;6.22;3.10;;;;;;;;;;5010298;28;20961;-83
2023/05/03 17:48:42;;;;;;;5.20;3.60;;;;;;;;;;5019367;28;20432;-81
2023/05/03 17:51:11;;;;;;;5.40;3.67;;;;;;;;;;5019918;28;20411;-82
2023/05/03 17:53:37;;;;;;;4.78;3.55;;;;;;;;;;5007978;28;20440;-81
2023/05/03 17:56:12;;;;;;;5.38;3.20;;;;;;;;;;5020604;28;20435;-82
2023/05/03 17:58:38;;;;;;;5.45;3.40;;;;;;;;;;5007693;28;20453;-82
2023/05/03 18:01:06;;;;;;;6.50;4.10;;;;;;;;;;5016993;28;20415;-81
2023/05/03 18:03:33;;;;;;;5.20;3.47;;;;;;;;;;5008825;28;20476;-83
2023/05/03 18:05:59;;;;;;;5.05;3.70;;;;;;;;;;5010931;28;20447;-81
2023/05/03 18:08:26;;;;;;;5.25;3.65;;;;;;;;;;5013005;28;20432;-81
2023/05/03 18:10:52;;;;;;;6.00;3.83;;;;;;;;;;5008816;28;20459;-81
2023/05/03 18:13:20;;;;;;;7.23;3.50;;;;;;;;;;5019634;28;20522;-83
2023/05/03 18:15:46;;;;;;;4.00;3.60;;;;;;;;;;5014970;28;20453;-82
2023/05/03 18:18:13;;;;;;;4.82;3.70;;;;;;;;;;5023070;28;20513;-82
2023/05/03 18:20:39;;;;;;;8.35;3.90;;;;;;;;;;5014148;28;20500;-81
2023/05/03 18:23:06;;;;;;;4.60;4.07;;;;;;;;;;5016788;28;20918;-82
2023/05/03 18:25:32;;;;;;;5.65;4.18;;;;;;;;;;5017895;28;20838;-81
2023/05/03 18:28:00;;;;;;;7.10;4.30;;;;;;;;;;5016348;28;20439;-81
2023/05/03 18:30:28;;;;;;;4.95;4.43;;;;;;;;;;5012822;28;20797;-81
2023/05/03 18:32:54;;;;;;;7.35;3.92;;;;;;;;;;5017485;28;20422;-81
2023/05/03 18:35:20;;;;;;;5.22;3.58;;;;;;;;;;5015553;28;20452;-81
2023/05/03 18:37:47;;;;;;;4.55;3.60;;;;;;;;;;5013106;28;21158;-81
2023/05/03 18:40:13;;;;;;;6.75;3.90;;;;;;;;;;5019497;28;20412;-81
2023/05/03 18:42:40;;;;;;;6.60;4.20;;;;;;;;;;5009240;28;20440;-81
2023/05/03 18:45:06;;;;;;;7.53;4.25;;;;;;;;;;5009431;28;20411;-81
2023/05/03 18:47:34;;;;;;;4.88;4.00;;;;;;;;;;5024442;28;20450;-81
2023/05/03 18:50:01;;;;;;;7.72;5.03;;;;;;;;;;5013062;28;20427;-81
2023/05/03 18:52:27;;;;;;;6.00;4.78;;;;;;;;;;5018364;28;20431;-84
2023/05/03 18:54:53;;;;;;;5.97;3.97;;;;;;;;;;5014386;28;20450;-81
2023/05/03 18:57:20;;;;;;;5.90;4.63;;;;;;;;;;5018675;28;20416;-82
2023/05/03 18:59:46;;;;;;;5.60;4.30;;;;;;;;;;5015784;28;20438;-81
2023/05/03 19:02:13;;;;;;;6.30;4.40;;;;;;;;;;5015294;28;20918;-81
2023/05/03 19:04:41;;;;;;;5.30;4.20;;;;;;;;;;5019924;28;20434;-83
2023/05/03 19:07:07;;;;;;;5.88;3.90;;;;;;;;;;5019989;28;20504;-81
2023/05/03 19:09:35;;;;;;;6.15;4.00;;;;;;;;;;5015392;28;20909;-82
2023/05/03 19:12:01;;;;;;;5.18;3.80;;;;;;;;;;5010907;28;20450;-82
2023/05/03 19:14:28;;;;;;;7.68;4.00;;;;;;;;;;5019902;28;20469;-82
2023/05/03 19:16:54;;;;;;;6.55;3.78;;;;;;;;;;5016851;28;20419;-81
2023/05/03 19:19:20;;;;;;;4.40;3.40;;;;;;;;;;5023306;28;20418;-82
2023/05/03 19:21:48;;;;;;;5.93;3.40;;;;;;;;;;5015149;28;20426;-82
2023/05/03 19:24:14;;;;;;;4.30;3.10;;;;;;;;;;5010537;28;20428;-82
2023/05/03 19:26:41;;;;;;;7.35;3.40;;;;;;;;;;5020492;28;20519;-81
2023/05/03 19:29:07;;;;;;;7.15;3.40;;;;;;;;;;5013172;28;20432;-81
2023/05/03 19:31:34;;;;;;;8.63;3.50;;;;;;;;;;5018247;28;20451;-82
2023/05/03 19:34:01;;;;;;;5.45;3.30;;;;;;;;;;5010694;28;20420;-82
2023/05/03 19:36:27;;;;;;;5.47;3.20;;;;;;;;;;5016570;28;20415;-81
2023/05/03 19:38:55;;;;;;;4.78;3.30;;;;;;;;;;5019161;28;20427;-81
2023/05/03 19:41:21;;;;;;;4.32;2.90;;;;;;;;;;5013823;28;20422;-81
2023/05/03 19:43:48;;;;;;;4.93;3.35;;;;;;;;;;5013182;28;20520;-81
2023/05/03 19:46:15;;;;;;;7.35;3.47;;;;;;;;;;5012719;28;20918;-84
2023/05/03 19:48:41;;;;;;;5.30;3.60;;;;;;;;;;5017516;28;20436;-81
2023/05/03 19:51:12;;;;;;;3.95;3.30;;;;;;;;;;5006290;28;20920;-81
2023/05/03 19:53:39;;;;;;;7.35;3.67;;;;;;;;;;5018268;28;20411;-81